Impacts TAF Board INFO
FOR SITUATIONAL AWARENESS. NOT TO BE USED FOR FLIGHT PLANNING PURPOSES.
IDs:

KPIT - Pittsburgh Intl, PA, US

Issued at 0416 UTC 18 Feb 2018
Updated at 0453 UTC 18 Feb 2018
Potential Impact None Slight Moderate High
Time0451Z 18/05Z 18/06Z 18/07Z 18/08Z 18/09Z 18/10Z 18/11Z 18/12Z 18/13Z 18/14Z 18/15Z 18/16Z 18/17Z>>
Type OBS PRVL
  [TEMP]  
PRVL
  [TEMP]  
PRVL PRVL PRVL PRVL PRVL PRVL PRVL PRVL PRVL PRVL PRVL
VIS 9 6
  [2]  
6
  [2]  
3 3 6 6 6 6 6 >6 >6 >6 >6
CIG 41 35
  [8]  
35
  [8]  
8 8 15 15 15 15 15 25 25 25 25
Cover OVC OVC
  [OVC]  
OVC
  [OVC]  
OVC OVC OVC OVC OVC OVC OVC OVC OVC OVC OVC
FltCat VFR VFR
  [IFR]  
VFR
  [IFR]  
IFR IFR MVFR MVFR MVFR MVFR MVFR MVFR MVFR MVFR MVFR
WX -SN -SN
  [-SN]  
-SN
  [-SN]  
-SN -SN -SN -SN -SN -SN -SN -- -- -- --
WDir 240 200
[200]
200
[200]
260 260 260 260 260 260 260 300 300 300 300
WSpd 6 5
  [5]  
5
  [5]  
8 8 7 7 7 7 7 8 8 8 8
WGst -- --
  [--]  
--
  [--]  
-- -- -- -- -- -- -- -- -- -- --

Raw TAF
KPIT 180416Z 1804/1906 20005KT 6SM -SN OVC035
  TEMPO 1805/1807 2SM -SN OVC008
  FM180700 26008KT 3SM -SN OVC008
  FM180900 26007KT 6SM -SN OVC015
  FM181400 30008KT P6SM OVC025
  FM181800 21005KT P6SM SCT035


Raw METAR
KPIT 180451Z 24006KT 9SM -SN SCT022 BKN041 OVC075 01/00 A2999 RMK AO2 SLP173 P0000 T00060000 400061033
KPIT 180351Z 24005KT 9SM -SN SCT010 OVC037 01/00 A2998 RMK AO2 SLP172 P0000 T00060000
KPIT 180301Z 25006KT 4SM -SN BR SCT005 OVC010 01/00 A2999 RMK AO2 P0000 T00060000
KPIT 180251Z 25004KT 2 1/2SM -SN BR BKN003 OVC008 01/00 A2999 RMK AO2 SLP176 P0001 60002 T00060000 53003
KPIT 180151Z 00000KT 2 1/2SM -SN BR BKN004 OVC009 00/00 A2999 RMK AO2 SLP175 P0000 T00000000

METAR Board
Radar Display
Forecast Discussion

FOR SITUATIONAL AWARENESS. NOT TO BE USED FOR FLIGHT PLANNING PURPOSES.